Rockwall's Hourly Summary for Monday, July 9, 2018
Hour Temp
(f)
RH
(%)
Solar Rad.
(MJ/m2)
Rainfall
(in)
Wind
(mph)
7/9/2018 12:00 AM 80 65 0 0 1.64
7/9/2018 1:00 AM 79 70 0 0 0.99
7/9/2018 2:00 AM 78 74 0 0 0.07
7/9/2018 3:00 AM 76 79 0 0 0.05
7/9/2018 4:00 AM 77 82 0 0 0.96
7/9/2018 5:00 AM 76 83 0 0 0.05
7/9/2018 6:00 AM 76 86 0 0 0.06
7/9/2018 7:00 AM 75 87 0.01 0 0
7/9/2018 8:00 AM 76 86 0.25 0 1.09
7/9/2018 9:00 AM 80 71 1.11 0 1.23
7/9/2018 10:00 AM 83 65 1.76 0 1.54
7/9/2018 11:00 AM 85 63 1.31 0 1.31
7/9/2018 12:00 PM 83 64 0.56 0 1.15
7/9/2018 1:00 PM 78 68 0.42 0.65 1.38
7/9/2018 2:00 PM 79 69 1.57 0.05 0.94
7/9/2018 3:00 PM 86 63 3.02 0 2.68
7/9/2018 4:00 PM 88 56 2.66 0 3.07
7/9/2018 5:00 PM 88 57 1.29 0 3.42
7/9/2018 6:00 PM 87 57 0.69 0 2.79
7/9/2018 7:00 PM 82 59 0.26 0 6.06
7/9/2018 8:00 PM 80 71 0.12 0 3.22
7/9/2018 9:00 PM 80 73 0.02 0 3.67
7/9/2018 10:00 PM 79 77 0 0 1.93
7/9/2018 11:00 PM 78 79 0 0 2.37
Data Summary 80 71 15.05 0.70 1.74